Garner, Arkansas
Current Conditions -  °F | °C
As of 5:56 PM on Friday 19 Dec 2014 (Local Time) from KSRC Reporting Station
Overcast Overcast  
Wind Chill: 36°   Ceiling: 1500
Heat Index: 40°   Visibility: 10mi
Dew Point: 37°   Wind: 6mph
Humidity: 89%   Direction: 10°N
Pressure: 30.25"   Gusts: NA
Location:  35.14°N, 91.79°W
Report Text: KSRC 192356Z AUTO 01005KT 10SM BKN015 OVC055 04/03 A3025 RMK AO2 SLP252 60000 T00440028 10056 20044 52010 TSNO
Loading
Personal Weather Stations






























Interactive Weather Map New forecast layout! Learn more

10-Day Weather Forecast

Advertisements
Track Severe Weather on mobile